Time;durP1;ratioP1;P1;durP2;ratioP2;P2;SDS_P1;SDS_P2;PMS_P1;PMS_P2;Temp;Humidity;BMP_temperature;BMP_pressure;BME280_temperature;BME280_humidity;BME280_pressure;Samples;Min_cycle;Max_cycle;Signal;HPM_P1;HPM_P2
2022/08/31 00:05:15;;;;;;;;;8.50;8.50;;;;;20.84;51.32;100963.03;5118518;27;45471;-80
2022/08/31 00:07:41;;;;;;;;;8.25;8.25;;;;;20.70;50.80;100939.16;5118864;27;45600;-78
2022/08/31 00:10:17;;;;;;;;;7.75;7.75;;;;;20.66;51.09;100935.88;5118224;27;45272;-78
2022/08/31 00:12:45;;;;;;;;;7.75;7.75;;;;;20.73;51.40;100952.28;5116592;27;45308;-78
2022/08/31 00:15:16;;;;;;;;;11.75;11.00;;;;;20.70;51.31;100952.53;5117046;27;45632;-79
2022/08/31 00:17:42;;;;;;;;;8.25;8.25;;;;;20.65;51.34;100944.03;5117238;27;45463;-79
2022/08/31 00:20:09;;;;;;;;;8.50;8.50;;;;;20.62;51.57;100942.41;5118137;27;45476;-78
2022/08/31 00:22:35;;;;;;;;;7.25;7.25;;;;;20.61;51.21;100942.56;5122462;27;45230;-79
2022/08/31 00:25:00;;;;;;;;;8.25;8.25;;;;;20.57;51.38;100936.59;5121182;27;45321;-78
2022/08/31 00:27:26;;;;;;;;;8.00;8.00;;;;;20.49;51.31;100921.16;5121130;27;46382;-79
2022/08/31 00:29:51;;;;;;;;;6.00;6.00;;;;;20.51;51.72;100935.25;5123011;27;45222;-78
2022/08/31 00:32:16;;;;;;;;;7.00;7.00;;;;;20.41;51.94;100929.75;5125287;27;45283;-77
2022/08/31 00:34:42;;;;;;;;;11.25;8.50;;;;;20.39;52.07;100928.19;5138968;27;45337;-79
2022/08/31 00:37:07;;;;;;;;;9.00;9.00;;;;;20.35;51.73;100932.88;5128632;27;45669;-79
2022/08/31 00:39:33;;;;;;;;;7.00;7.00;;;;;20.37;52.01;100940.81;5122240;27;45309;-78
2022/08/31 00:41:58;;;;;;;;;6.75;6.75;;;;;20.31;52.36;100936.75;5121847;27;45575;-80
2022/08/31 00:44:24;;;;;;;;;7.75;7.75;;;;;20.26;52.31;100931.78;5121182;27;45286;-78
2022/08/31 00:46:49;;;;;;;;;5.25;5.25;;;;;20.23;52.24;100941.84;5120161;27;46598;-80
2022/08/31 00:49:25;;;;;;;;;6.75;6.75;;;;;20.23;52.04;100942.69;5120142;27;45303;-80
2022/08/31 00:51:53;;;;;;;;;7.50;7.50;;;;;20.20;52.48;100939.41;5120416;27;45390;-79
2022/08/31 00:54:24;;;;;;;;;6.00;6.00;;;;;20.16;52.40;100933.44;5120231;27;45256;-80
2022/08/31 00:56:50;;;;;;;;;3.75;3.75;;;;;20.14;52.64;100938.88;5118955;27;45413;-77
2022/08/31 00:59:19;;;;;;;;;7.00;7.00;;;;;20.05;52.43;100931.56;5119404;27;45424;-79
2022/08/31 01:01:44;;;;;;;;;7.00;7.00;;;;;20.01;52.29;100935.44;5119334;27;45424;-80
2022/08/31 01:04:10;;;;;;;;;7.00;7.00;;;;;20.03;52.02;100946.84;5104133;27;45254;-79
2022/08/31 01:06:36;;;;;;;;;7.00;7.00;;;;;19.93;52.34;100941.34;5120745;27;45520;-78
2022/08/31 01:09:04;;;;;;;;;10.00;10.00;;;;;19.91;52.31;100937.94;5121728;27;45243;-78
2022/08/31 01:11:31;;;;;;;;;6.25;6.25;;;;;19.87;52.98;100940.94;5122749;27;45215;-79
2022/08/31 01:13:57;;;;;;;;;7.00;7.00;;;;;19.85;52.67;100944.56;5119003;27;45488;-78
2022/08/31 01:16:32;;;;;;;;;6.00;6.00;;;;;19.89;53.11;100952.34;5100130;27;47187;-77
2022/08/31 01:19:01;;;;;;;;;7.00;7.00;;;;;19.82;52.76;100938.59;5117754;27;45441;-81
2022/08/31 01:21:31;;;;;;;;;5.25;5.25;;;;;19.85;52.89;100951.69;5118366;27;45424;-80
2022/08/31 01:24:00;;;;;;;;;5.75;5.75;;;;;19.76;52.93;100942.56;5118448;27;45440;-78
2022/08/31 01:26:29;;;;;;;;;5.75;5.75;;;;;19.76;52.95;100955.06;5118772;27;46691;-80
2022/08/31 01:29:00;;;;;;;;;8.25;8.25;;;;;19.74;52.90;100949.84;5120471;27;45342;-79
2022/08/31 01:31:30;;;;;;;;;7.00;7.00;;;;;19.75;53.13;100961.34;5119066;27;45421;-79
2022/08/31 01:33:56;;;;;;;;;7.00;7.00;;;;;19.70;53.69;100951.03;5118579;27;45531;-80
2022/08/31 01:36:22;;;;;;;;;6.50;6.50;;;;;19.65;53.52;100951.34;5118073;27;46391;-79
2022/08/31 01:38:47;;;;;;;;;5.25;5.25;;;;;19.58;53.47;100946.56;5119448;27;45385;-80
2022/08/31 01:41:13;;;;;;;;;8.25;8.25;;;;;19.58;53.69;100947.44;5118764;27;45408;-80
2022/08/31 01:43:38;;;;;;;;;7.00;7.00;;;;;19.55;53.15;100953.00;5117609;27;45360;-78
2022/08/31 01:46:10;;;;;;;;;8.50;8.50;;;;;19.54;53.68;100953.94;5118711;27;45689;-80
2022/08/31 01:48:36;;;;;;;;;7.00;7.00;;;;;19.48;53.41;100951.72;5119199;27;45335;-80
2022/08/31 01:51:03;;;;;;;;;8.25;8.00;;;;;19.46;53.59;100959.81;5119376;27;45564;-79
2022/08/31 01:53:29;;;;;;;;;7.50;7.50;;;;;19.44;54.17;100955.56;5119463;27;45290;-80
2022/08/31 01:55:54;;;;;;;;;6.25;6.25;;;;;19.39;53.79;100950.56;5118814;27;45468;-79
2022/08/31 01:58:19;;;;;;;;;6.50;6.50;;;;;19.37;54.26;100956.03;5100205;27;45886;-81
2022/08/31 02:00:45;;;;;;;;;5.50;5.50;;;;;19.35;54.09;100959.75;5101116;27;45346;-79
2022/08/31 02:03:10;;;;;;;;;6.00;6.00;;;;;19.30;54.26;100962.75;5119260;27;45642;-79
2022/08/31 02:05:37;;;;;;;;;6.50;6.50;;;;;19.26;54.67;100959.44;5118231;27;45376;-80
2022/08/31 02:08:05;;;;;;;;;5.75;5.75;;;;;19.25;54.38;100965.72;5118249;27;45188;-80
2022/08/31 02:10:32;;;;;;;;;8.25;8.25;;;;;19.23;54.37;100966.81;5118201;27;45515;-79
2022/08/31 02:12:58;;;;;;;;;6.25;6.25;;;;;19.19;54.33;100968.00;5120203;27;45304;-79
2022/08/31 02:15:23;;;;;;;;;6.75;6.75;;;;;19.17;54.45;100968.09;5123075;27;45551;-78
2022/08/31 02:17:49;;;;;;;;;8.25;7.50;;;;;19.12;54.55;100960.44;5134670;27;45305;-79
2022/08/31 02:20:15;;;;;;;;;6.00;6.00;;;;;19.11;54.74;100952.53;5121346;27;45215;-79
2022/08/31 02:22:41;;;;;;;;;7.25;7.25;;;;;19.14;55.15;100965.63;5129046;27;45249;-79
2022/08/31 02:25:07;;;;;;;;;7.00;7.00;;;;;19.10;54.63;100959.69;5117924;27;45668;-81
2022/08/31 02:27:34;;;;;;;;;8.25;8.25;;;;;19.10;54.70;100966.81;5118199;27;45232;-80
2022/08/31 02:29:59;;;;;;;;;7.25;7.25;;;;;18.98;55.12;100947.19;5118818;27;45303;-79
2022/08/31 02:32:24;;;;;;;;;7.75;7.75;;;;;19.06;55.10;100973.31;5118474;27;45516;-79
2022/08/31 02:34:50;;;;;;;;;6.25;6.25;;;;;19.06;54.70;100974.16;5118454;27;45570;-79
2022/08/31 02:37:16;;;;;;;;;7.25;7.25;;;;;19.02;55.09;100963.84;5118290;27;45459;-79
2022/08/31 02:39:41;;;;;;;;;9.75;9.75;;;;;18.97;55.03;100965.00;5117959;27;45287;-79
2022/08/31 02:42:07;;;;;;;;;8.50;8.50;;;;;18.97;55.20;100966.81;5118556;27;45343;-79
2022/08/31 02:44:32;;;;;;;;;11.25;10.00;;;;;18.93;55.40;100966.16;5117937;27;46231;-80
2022/08/31 02:46:58;;;;;;;;;6.00;6.00;;;;;18.93;55.57;100966.16;5099723;27;45279;-79
2022/08/31 02:49:23;;;;;;;;;6.00;6.00;;;;;18.92;55.36;100966.25;5118238;27;45286;-80
2022/08/31 02:51:48;;;;;;;;;7.75;7.75;;;;;18.88;55.59;100968.28;5102647;27;45320;-79
2022/08/31 02:54:14;;;;;;;;;7.00;7.00;;;;;18.87;55.47;100961.25;5106337;27;47149;-80
2022/08/31 02:56:40;;;;;;;;;8.25;8.25;;;;;18.90;55.37;100969.03;5123732;27;46017;-80
2022/08/31 02:59:05;;;;;;;;;7.75;7.75;;;;;18.83;55.21;100968.59;5132602;27;44828;-78
2022/08/31 03:01:31;;;;;;;;;8.75;8.75;;;;;18.79;55.62;100964.44;5124848;27;45346;-78
2022/08/31 03:03:56;;;;;;;;;9.00;9.00;;;;;18.79;55.57;100972.44;5130940;27;45152;-79
2022/08/31 03:06:22;;;;;;;;;7.50;7.50;;;;;18.78;55.80;100984.06;5134492;27;45233;-79
2022/08/31 03:08:48;;;;;;;;;7.00;7.00;;;;;18.76;55.83;100977.97;5112603;27;45305;-80
2022/08/31 03:11:16;;;;;;;;;9.00;9.00;;;;;18.72;55.86;100981.81;5126658;27;45204;-77
2022/08/31 03:13:42;;;;;;;;;7.50;7.50;;;;;18.71;56.02;100985.44;5105034;27;47370;-78
2022/08/31 03:16:10;;;;;;;;;7.25;7.25;;;;;18.57;56.10;100972.19;5120188;27;45402;-80
2022/08/31 03:18:35;;;;;;;;;7.00;7.00;;;;;18.63;56.20;100983.31;5117101;27;45355;-80
2022/08/31 03:21:01;;;;;;;;;8.75;8.75;;;;;18.57;56.47;100982.84;5098363;27;45249;-78
2022/08/31 03:23:26;;;;;;;;;7.00;7.00;;;;;18.56;56.06;100994.47;5116748;27;45631;-80
2022/08/31 03:25:52;;;;;;;;;7.25;7.25;;;;;18.49;55.85;100986.03;5117131;27;45306;-77
2022/08/31 03:28:17;;;;;;;;;7.75;7.75;;;;;18.48;56.20;100990.50;5117279;27;45325;-78
2022/08/31 03:30:42;;;;;;;;;7.50;7.00;;;;;18.49;56.37;100991.34;5117104;27;45303;-79
2022/08/31 03:33:08;;;;;;;;;7.00;7.00;;;;;18.46;56.29;100991.56;5117178;27;45216;-79
2022/08/31 03:35:34;;;;;;;;;7.50;7.50;;;;;18.42;56.34;100992.72;5098325;27;45657;-78
2022/08/31 03:38:01;;;;;;;;;7.25;7.25;;;;;18.42;56.59;100998.91;5117725;27;45334;-79
2022/08/31 03:40:27;;;;;;;;;6.25;6.25;;;;;18.39;56.35;100999.97;5118304;27;45558;-80
2022/08/31 03:42:52;;;;;;;;;6.25;6.25;;;;;18.34;56.53;100986.09;5117379;27;46052;-80
2022/08/31 03:45:18;;;;;;;;;8.75;8.75;;;;;18.35;56.47;100987.81;5117500;27;45368;-81
2022/08/31 03:47:44;;;;;;;;;7.00;7.00;;;;;18.38;56.80;100992.09;5117777;27;45378;-79
2022/08/31 03:50:10;;;;;;;;;8.50;8.50;;;;;18.37;56.75;100995.69;5117567;27;45413;-79
2022/08/31 03:52:37;;;;;;;;;9.00;9.00;;;;;18.31;56.51;100986.31;5117269;27;46512;-78
2022/08/31 03:55:03;;;;;;;;;7.75;7.75;;;;;18.21;56.67;100972.75;5118437;27;45306;-79
2022/08/31 03:57:29;;;;;;;;;7.00;7.00;;;;;18.33;56.84;100995.03;5118786;27;45253;-80
2022/08/31 03:59:56;;;;;;;;;6.50;6.50;;;;;18.29;56.80;100993.53;5125225;27;45437;-79
2022/08/31 04:02:23;;;;;;;;;5.75;5.75;;;;;18.28;56.72;101001.66;5130125;27;46728;-81
2022/08/31 04:04:50;;;;;;;;;6.50;6.50;;;;;18.06;56.70;100976.44;5132696;27;45347;-81
2022/08/31 04:07:15;;;;;;;;;8.00;8.00;;;;;18.13;56.69;100991.06;5130964;27;45293;-80
2022/08/31 04:09:40;;;;;;;;;6.00;6.00;;;;;18.18;56.90;101004.03;5126809;27;45540;-80
2022/08/31 04:12:06;;;;;;;;;7.00;7.00;;;;;18.18;57.26;101004.91;5123350;27;46110;-80
2022/08/31 04:14:32;;;;;;;;;9.25;9.25;;;;;18.15;57.11;101001.59;5135199;27;45376;-78
2022/08/31 04:16:59;;;;;;;;;8.00;8.00;;;;;18.10;57.11;100996.56;5135164;27;45160;-78
2022/08/31 04:19:25;;;;;;;;;6.25;6.25;;;;;18.12;57.34;101004.44;5117745;27;45205;-78
2022/08/31 04:21:50;;;;;;;;;8.00;8.00;;;;;18.05;57.21;100996.88;5109993;27;48401;-79
2022/08/31 04:24:15;;;;;;;;;7.00;7.00;;;;;18.04;57.38;100991.66;5133775;27;45349;-80
2022/08/31 04:26:41;;;;;;;;;7.75;7.75;;;;;18.01;57.55;100992.69;5131116;27;45297;-78
2022/08/31 04:29:07;;;;;;;;;10.50;9.25;;;;;18.07;57.52;101010.09;5126812;27;45255;-80
2022/08/31 04:31:35;;;;;;;;;7.50;7.50;;;;;18.00;57.42;100998.06;5133440;27;45335;-80
2022/08/31 04:34:00;;;;;;;;;8.25;8.25;;;;;17.96;57.55;101000.94;5127642;27;45344;-82
2022/08/31 04:36:31;;;;;;;;;8.00;8.00;;;;;17.96;57.57;101006.25;5131007;27;45334;-79
2022/08/31 04:38:59;;;;;;;;;8.75;8.75;;;;;17.98;57.69;101011.50;5107433;27;45420;-79
2022/08/31 04:41:26;;;;;;;;;8.50;8.50;;;;;17.98;57.82;101007.97;5105851;27;47202;-79
2022/08/31 04:43:54;;;;;;;;;8.75;8.75;;;;;17.95;57.74;101001.06;5109245;27;46170;-80
2022/08/31 04:46:21;;;;;;;;;8.00;8.00;;;;;17.95;57.65;101015.19;5125577;27;45524;-80
2022/08/31 04:48:47;;;;;;;;;8.25;8.25;;;;;17.90;57.98;101006.66;5123404;27;45560;-78
2022/08/31 04:51:19;;;;;;;;;8.00;8.00;;;;;17.93;57.72;101006.47;5125389;27;45538;-81
2022/08/31 04:53:45;;;;;;;;;7.75;7.75;;;;;17.88;57.91;101003.25;5107509;27;45270;-80
2022/08/31 04:56:17;;;;;;;;;7.75;7.75;;;;;17.85;58.06;100998.13;5123324;27;45881;-79
2022/08/31 04:58:46;;;;;;;;;8.00;8.00;;;;;17.89;57.96;101002.28;5125319;27;45165;-77
2022/08/31 05:01:15;;;;;;;;;8.50;8.50;;;;;17.87;58.22;100996.22;5110034;27;46916;-79
2022/08/31 05:03:42;;;;;;;;;9.00;9.00;;;;;17.76;57.92;100978.28;5106227;27;45213;-78
2022/08/31 05:06:13;;;;;;;;;9.00;9.00;;;;;17.78;58.35;100987.03;5124891;27;45226;-79
2022/08/31 05:08:38;;;;;;;;;7.75;7.75;;;;;17.88;58.29;100999.75;5130641;27;45244;-78
2022/08/31 05:11:16;;;;;;;;;9.75;9.75;;;;;17.83;58.16;100991.19;5124538;27;46483;-78
2022/08/31 05:13:41;;;;;;;;;8.25;8.25;;;;;17.85;58.13;100995.44;5123508;27;45306;-78
2022/08/31 05:16:09;;;;;;;;;9.25;9.25;;;;;17.82;58.21;100995.66;5128010;27;45110;-77
2022/08/31 05:18:37;;;;;;;;;8.50;8.50;;;;;17.78;58.11;100986.16;5136226;27;44874;-79
2022/08/31 05:21:10;;;;;;;;;10.75;10.75;;;;;17.86;58.37;101002.47;5143976;27;45731;-81
2022/08/31 05:23:36;;;;;;;;;9.00;9.00;;;;;17.78;58.12;100984.38;5144320;27;45511;-79
2022/08/31 05:26:01;;;;;;;;;9.25;9.25;;;;;17.87;58.33;101001.53;5143607;27;45354;-80
2022/08/31 05:28:27;;;;;;;;;10.25;10.25;;;;;17.78;58.25;100987.03;5151997;27;45326;-79
2022/08/31 05:30:52;;;;;;;;;15.25;15.25;;;;;17.87;58.38;101006.00;5147191;27;45401;-79
2022/08/31 05:33:17;;;;;;;;;9.00;9.00;;;;;17.79;58.18;100986.06;5130141;27;45359;-82
2022/08/31 05:35:43;;;;;;;;;7.00;7.00;;;;;17.92;58.16;101012.72;5129575;27;45432;-84
2022/08/31 05:38:09;;;;;;;;;7.75;7.75;;;;;17.88;58.24;100997.06;5128606;27;45390;-82
2022/08/31 05:40:35;;;;;;;;;7.50;7.50;;;;;17.80;58.21;100992.25;5148896;27;45490;-80
2022/08/31 05:43:00;;;;;;;;;9.00;9.00;;;;;17.86;58.13;100996.31;5150031;27;45267;-81
2022/08/31 05:45:31;;;;;;;;;8.75;8.75;;;;;17.82;58.39;100982.34;5134569;27;44844;-81
2022/08/31 05:47:57;;;;;;;;;8.50;8.50;;;;;17.87;58.28;101003.34;5151398;27;45490;-82
2022/08/31 05:50:22;;;;;;;;;8.00;8.00;;;;;17.88;58.59;101002.41;5133917;27;47666;-79
2022/08/31 05:52:48;;;;;;;;;8.25;8.25;;;;;17.88;58.36;101013.03;5149094;27;45810;-78
2022/08/31 05:55:13;;;;;;;;;9.00;9.00;;;;;17.79;58.52;100998.50;5146777;27;45388;-80
2022/08/31 05:57:41;;;;;;;;;8.75;8.75;;;;;17.88;58.37;101010.38;5145303;27;45533;-82
2022/08/31 06:00:09;;;;;;;;;8.25;8.25;;;;;17.87;58.56;101009.50;5119264;27;47296;-78
2022/08/31 06:02:35;;;;;;;;;10.00;10.00;;;;;17.94;58.36;101020.63;5119723;27;45703;-78
2022/08/31 06:05:01;;;;;;;;;9.00;9.00;;;;;17.96;58.68;101021.38;5125266;27;45356;-79
2022/08/31 06:07:27;;;;;;;;;12.75;12.75;;;;;17.99;58.63;101015.88;5143306;27;45544;-77
2022/08/31 06:09:52;;;;;;;;;10.00;10.00;;;;;18.05;58.20;101014.66;5122333;27;46929;-77
2022/08/31 06:12:19;;;;;;;;;10.00;10.00;;;;;18.05;58.07;101012.00;5134991;27;45441;-78
2022/08/31 06:14:45;;;;;;;;;10.00;10.00;;;;;18.09;58.17;101009.03;5142489;27;45313;-76
2022/08/31 06:17:11;;;;;;;;;9.00;9.00;;;;;18.16;57.86;101017.47;5143789;27;45579;-77
2022/08/31 06:19:37;;;;;;;;;8.00;8.00;;;;;18.13;57.99;101020.34;5141055;27;46218;-78
2022/08/31 06:22:03;;;;;;;;;8.50;8.50;;;;;18.12;58.11;101013.31;5132747;27;45215;-78
2022/08/31 06:24:28;;;;;;;;;9.50;9.50;;;;;18.14;58.08;101022.03;5127745;27;45227;-79
2022/08/31 06:26:58;;;;;;;;;9.00;9.00;;;;;18.15;58.22;101015.75;5125712;27;45223;-83
2022/08/31 06:29:25;;;;;;;;;10.25;10.25;;;;;18.09;58.07;101010.84;5140005;27;45314;-81
2022/08/31 06:31:51;;;;;;;;;9.75;9.75;;;;;18.20;58.03;101029.63;5120741;27;45931;-79
2022/08/31 06:34:18;;;;;;;;;10.25;10.25;;;;;18.23;58.16;101026.75;5123041;27;45235;-76
2022/08/31 06:36:44;;;;;;;;;7.75;7.75;;;;;18.27;58.12;101021.25;5122289;27;45318;-79
2022/08/31 06:39:11;;;;;;;;;7.25;7.25;;;;;18.24;58.23;101017.81;5121912;27;45669;-78
2022/08/31 06:41:38;;;;;;;;;11.00;11.00;;;;;18.28;58.10;101022.94;5103963;27;45487;-79
2022/08/31 06:44:06;;;;;;;;;6.00;6.00;;;;;18.25;57.96;101021.31;5127853;27;45420;-80
2022/08/31 06:46:33;;;;;;;;;9.50;9.50;;;;;18.37;58.09;101019.66;5124606;27;45578;-79
2022/08/31 06:49:01;;;;;;;;;11.00;11.00;;;;;18.40;58.13;101027.47;5107027;27;47152;-80
2022/08/31 06:51:27;;;;;;;;;9.25;9.25;;;;;18.45;58.06;101035.13;5135458;27;45523;-82
2022/08/31 06:53:53;;;;;;;;;10.00;10.00;;;;;18.44;58.12;101020.97;5129489;27;45341;-80
2022/08/31 06:56:24;;;;;;;;;12.00;12.00;;;;;18.54;58.02;101034.50;5140170;27;45587;-79
2022/08/31 06:58:50;;;;;;;;;10.00;9.50;;;;;18.55;57.76;101033.56;5105956;27;47371;-76
2022/08/31 07:01:19;;;;;;;;;11.00;11.00;;;;;18.59;57.48;101044.88;5122309;27;45507;-76
2022/08/31 07:03:47;;;;;;;;;14.00;14.00;;;;;18.63;57.55;101043.72;5122082;27;45326;-81
2022/08/31 07:06:16;;;;;;;;;11.75;11.75;;;;;18.67;57.37;101039.88;5115134;27;45514;-78
2022/08/31 07:08:43;;;;;;;;;14.00;14.00;;;;;18.75;57.38;101039.38;5141855;27;46380;-77
2022/08/31 07:11:19;;;;;;;;;10.25;10.25;;;;;18.83;57.09;101037.88;5141007;27;45496;-78
2022/08/31 07:13:46;;;;;;;;;11.50;11.50;;;;;18.91;56.89;101039.19;5134660;27;45530;-78
2022/08/31 07:16:13;;;;;;;;;9.25;9.25;;;;;19.00;57.40;101037.75;5132657;27;46495;-77
2022/08/31 07:18:39;;;;;;;;;11.00;11.00;;;;;19.11;57.04;101049.38;5117910;27;45419;-74
2022/08/31 07:21:09;;;;;;;;;13.25;13.25;;;;;19.16;56.59;101043.72;5120199;27;45315;-81
2022/08/31 07:23:35;;;;;;;;;14.00;14.00;;;;;19.18;56.38;101036.47;5115587;27;45554;-81
2022/08/31 07:26:09;;;;;;;;;11.25;11.25;;;;;19.29;55.89;101041.06;5124290;27;45309;-78
2022/08/31 07:28:37;;;;;;;;;12.00;12.00;;;;;19.31;56.33;101041.81;5132025;27;45922;-81
2022/08/31 07:31:04;;;;;;;;;12.00;12.00;;;;;19.29;56.00;101033.06;5137171;27;45462;-78
2022/08/31 07:33:37;;;;;;;;;12.00;12.00;;;;;19.41;55.99;101031.31;5137865;27;45414;-80
2022/08/31 07:36:09;;;;;;;;;10.00;10.00;;;;;19.52;56.22;101039.41;5148993;27;45394;-78
2022/08/31 07:42:20;;;;;;;;;12.75;12.75;;;;;19.70;55.15;101042.59;5141165;27;45488;-81
2022/08/31 07:44:17;;;;;;;;;10.50;10.50;;;;;19.75;55.20;101038.75;5126164;27;45507;-80
2022/08/31 07:46:44;;;;;;;;;11.00;11.00;;;;;19.81;55.66;101040.97;5141246;27;45477;-81
2022/08/31 07:49:13;;;;;;;;;10.00;10.00;;;;;19.90;54.74;101044.84;5120988;27;47503;-82
2022/08/31 07:51:49;;;;;;;;;11.75;11.75;;;;;19.96;54.65;101042.56;5139502;27;45571;-81
2022/08/31 07:54:17;;;;;;;;;11.25;11.25;;;;;20.03;54.41;101042.97;5141901;27;45396;-77
2022/08/31 07:56:44;;;;;;;;;11.75;11.75;;;;;20.04;54.83;101035.81;5120868;27;45558;-83
2022/08/31 07:59:10;;;;;;;;;10.50;10.50;;;;;20.10;54.76;101046.03;5141290;27;45914;-82
2022/08/31 08:01:39;;;;;;;;;13.25;12.50;;;;;20.17;54.55;101041.97;5140065;27;45569;-76
2022/08/31 08:04:05;;;;;;;;;12.25;12.25;;;;;20.21;54.45;101040.78;5140804;27;45365;-80
2022/08/31 08:06:30;;;;;;;;;14.00;14.00;;;;;20.19;53.90;101036.50;5123487;27;45277;-79
2022/08/31 08:09:05;;;;;;;;;12.50;12.50;;;;;20.29;54.41;101042.88;5145081;27;46299;-76
2022/08/31 08:11:31;;;;;;;;;13.00;13.00;;;;;20.35;54.22;101038.91;5150709;27;45321;-78
2022/08/31 08:13:57;;;;;;;;;10.75;10.75;;;;;20.43;54.01;101037.34;5152602;27;45426;-81
2022/08/31 08:16:23;;;;;;;;;13.50;13.50;;;;;20.39;53.89;101011.00;5148168;27;45443;-79
2022/08/31 08:18:49;;;;;;;;;22.00;21.50;;;;;20.61;53.59;101036.94;5142989;27;45303;-79
2022/08/31 08:21:14;;;;;;;;;9.75;9.75;;;;;20.67;53.52;101027.59;5124014;27;45179;-81
2022/08/31 08:23:40;;;;;;;;;10.50;10.50;;;;;20.77;53.15;101020.59;5141575;27;45108;-82
2022/08/31 08:26:09;;;;;;;;;12.00;12.00;;;;;20.71;53.23;101016.59;5140899;27;45501;-83
2022/08/31 08:28:34;;;;;;;;;13.25;13.25;;;;;20.78;53.21;101026.81;5121888;27;47016;-82
2022/08/31 08:31:00;;;;;;;;;14.75;14.75;;;;;20.82;53.07;101023.78;5140338;27;45356;-82
2022/08/31 08:33:27;;;;;;;;;14.50;14.50;;;;;20.90;52.84;101025.03;5140250;27;45358;-76
2022/08/31 08:35:57;;;;;;;;;14.25;14.25;;;;;20.96;53.03;101014.72;5133056;27;45583;-77
2022/08/31 08:38:29;;;;;;;;;15.25;14.25;;;;;21.11;52.64;101011.81;5145758;27;45409;-77
2022/08/31 08:41:00;;;;;;;;;11.75;11.75;;;;;21.17;52.59;101011.34;5144988;27;45226;-79
2022/08/31 08:43:32;;;;;;;;;9.25;9.25;;;;;21.16;52.20;101002.44;5139986;27;45410;-80
2022/08/31 08:46:01;;;;;;;;;12.25;12.25;;;;;21.22;52.31;101017.19;5146168;27;45319;-80
2022/08/31 08:48:29;;;;;;;;;10.00;10.00;;;;;21.24;52.00;101003.69;5145053;27;46459;-77
2022/08/31 08:50:55;;;;;;;;;12.75;12.75;;;;;21.31;52.19;101010.25;5144127;27;45285;-79
2022/08/31 08:53:24;;;;;;;;;13.25;13.25;;;;;21.36;51.91;101010.75;5142830;27;45479;-79
2022/08/31 08:55:50;;;;;;;;;11.00;11.00;;;;;21.44;52.03;101010.13;5141772;27;45348;-77
2022/08/31 08:58:18;;;;;;;;;16.75;16.50;;;;;21.55;51.26;101009.28;5140830;27;45458;-78
2022/08/31 09:00:51;;;;;;;;;12.75;12.75;;;;;21.57;51.52;101002.81;5141039;27;45228;-81
2022/08/31 09:03:29;;;;;;;;;13.25;13.25;;;;;21.67;51.26;101010.13;5141352;27;45278;-77
2022/08/31 09:05:54;;;;;;;;;13.00;13.00;;;;;21.81;51.45;101003.66;5141076;27;45222;-80
2022/08/31 09:08:41;;;;;;;;;10.00;9.75;;;;;21.94;50.82;101014.25;5140449;27;46388;-81
2022/08/31 09:11:27;;;;;;;;;14.25;14.25;;;;;22.01;50.64;101013.59;5140386;27;45341;-81
2022/08/31 09:14:30;;;;;;;;;14.50;13.75;;;;;22.06;50.54;101002.53;5141060;27;45393;-81
2022/08/31 09:17:33;;;;;;;;;16.00;16.00;;;;;22.12;50.44;101003.81;5035790;28;45434;-80
2022/08/31 09:20:03;;;;;;;;;14.25;14.25;;;;;22.23;50.13;101009.13;5142397;27;45647;-83
2022/08/31 09:22:47;;;;;;;;;19.50;19.25;;;;;22.33;50.43;101003.88;5130169;27;45888;-81
2022/08/31 09:25:19;;;;;;;;;16.00;16.00;;;;;22.45;49.88;101002.03;5146387;27;45377;-80
2022/08/31 09:27:57;;;;;;;;;14.25;14.25;;;;;22.52;50.01;100995.19;5141516;27;45241;-78
2022/08/31 09:30:45;;;;;;;;;15.25;15.25;;;;;22.63;49.82;100990.75;5121818;27;46512;-79
2022/08/31 09:33:27;;;;;;;;;14.00;14.00;;;;;22.72;49.15;100992.63;5141137;27;45342;-76
2022/08/31 09:36:13;;;;;;;;;16.75;16.75;;;;;22.76;49.15;100997.59;5139586;27;45366;-79
2022/08/31 09:38:39;;;;;;;;;11.75;11.75;;;;;22.85;49.03;100993.28;5140176;27;45308;-77
2022/08/31 09:41:36;;;;;;;;;13.25;12.75;;;;;22.97;48.99;100996.75;5140734;27;46495;-81
2022/08/31 09:44:34;;;;;;;;;13.75;13.75;;;;;23.10;49.10;100984.94;5121421;27;45388;-81
2022/08/31 09:47:05;;;;;;;;;15.25;15.25;;;;;23.17;48.41;100976.19;5148249;27;45348;-79
2022/08/31 09:49:36;;;;;;;;;8.00;8.00;;;;;23.31;48.80;100984.91;5147540;27;45466;-79
2022/08/31 09:55:24;;;;;;;;;12.50;12.50;;;;;23.52;48.19;100982.16;5146838;27;45357;-76
2022/08/31 09:58:03;;;;;;;;;13.00;13.00;;;;;23.57;47.53;100971.03;5125703;27;45206;-77
2022/08/31 10:00:43;;;;;;;;;17.75;17.75;;;;;23.67;47.88;100977.25;5140123;27;45445;-76
2022/08/31 10:03:17;;;;;;;;;16.00;16.00;;;;;23.72;47.41;100979.53;5139790;27;45514;-76
2022/08/31 10:05:43;;;;;;;;;13.75;13.75;;;;;23.83;47.47;100968.66;5139952;27;45604;-79
2022/08/31 10:08:41;;;;;;;;;11.25;11.25;;;;;23.95;47.38;100963.19;5141705;27;45356;-79
2022/08/31 10:11:19;;;;;;;;;11.00;11.00;;;;;24.14;46.78;100962.34;5141633;27;45354;-77
2022/08/31 10:14:06;;;;;;;;;13.00;13.00;;;;;24.20;46.22;100948.34;5141712;27;46255;-76
2022/08/31 10:16:42;;;;;;;;;14.25;14.25;;;;;24.30;46.69;100956.41;5122534;27;45423;-78
2022/08/31 10:19:19;;;;;;;;;12.50;12.50;;;;;24.38;45.92;100953.84;5142390;27;45371;-78
2022/08/31 10:22:01;;;;;;;;;16.50;16.50;;;;;24.47;46.45;100954.84;5142359;27;45347;-77
2022/08/31 10:24:36;;;;;;;;;19.00;18.00;;;;;24.51;45.61;100948.19;5139796;27;45363;-74
2022/08/31 10:27:37;;;;;;;;;12.25;12.25;;;;;24.58;46.04;100941.25;5140118;27;45361;-75
2022/08/31 10:30:29;;;;;;;;;10.50;10.50;;;;;24.70;45.72;100949.13;5033663;28;45436;-78
2022/08/31 10:33:09;;;;;;;;;11.75;11.75;;;;;24.78;45.71;100951.97;5135585;27;45472;-82
2022/08/31 10:35:49;;;;;;;;;12.50;12.50;;;;;24.87;45.23;100947.53;5139271;27;46582;-79
2022/08/31 10:38:44;;;;;;;;;10.75;10.75;;;;;24.97;45.03;100944.84;5138839;27;45245;-77
2022/08/31 10:41:16;;;;;;;;;9.00;9.00;;;;;25.11;44.32;100948.91;5132368;27;45791;-82
2022/08/31 10:44:22;;;;;;;;;14.75;14.75;;;;;25.18;44.58;100950.00;5123639;27;45470;-78
2022/08/31 10:46:49;;;;;;;;;12.75;12.75;;;;;25.22;44.38;100944.16;5142173;27;45791;-77
2022/08/31 10:49:15;;;;;;;;;10.75;10.75;;;;;25.21;44.24;100934.38;5141239;27;45275;-79
2022/08/31 10:51:45;;;;;;;;;11.75;11.75;;;;;25.29;44.00;100941.72;5140460;27;45438;-76
2022/08/31 10:54:23;;;;;;;;;9.75;9.75;;;;;25.39;43.73;100938.97;5140279;27;45490;-77
2022/08/31 10:56:57;;;;;;;;;14.25;14.25;;;;;25.46;44.16;100936.56;5139604;27;45363;-78
2022/08/31 10:59:36;;;;;;;;;21.25;20.25;;;;;25.61;43.84;100932.34;5139437;27;45215;-75
2022/08/31 11:02:05;;;;;;;;;10.50;10.50;;;;;25.75;43.43;100933.69;5141800;27;45334;-77
2022/08/31 11:04:52;;;;;;;;;16.00;16.00;;;;;25.86;43.66;100939.84;5141537;27;45393;-75
2022/08/31 11:07:46;;;;;;;;;11.25;11.25;;;;;26.00;42.99;100920.44;5144397;27;45468;-75
2022/08/31 11:10:48;;;;;;;;;11.25;11.25;;;;;26.05;43.14;100930.75;5150181;27;45180;-75
2022/08/31 11:13:37;;;;;;;;;10.25;10.25;;;;;26.11;42.58;100935.53;5115297;27;45347;-78
2022/08/31 11:16:31;;;;;;;;;10.50;10.50;;;;;26.21;43.17;100938.16;5120033;27;45504;-74
2022/08/31 11:19:06;;;;;;;;;13.50;13.50;;;;;26.33;42.40;100933.38;5119527;27;47660;-75
2022/08/31 11:22:15;;;;;;;;;12.50;12.50;;;;;26.46;42.19;100928.41;5137640;27;45274;-74
2022/08/31 11:25:23;;;;;;;;;11.75;11.75;;;;;26.49;42.13;100933.50;5033938;28;45523;-77
2022/08/31 11:28:01;;;;;;;;;15.00;15.00;;;;;26.57;41.66;100930.03;5137722;27;45367;-76
2022/08/31 11:30:31;;;;;;;;;15.50;15.50;;;;;26.58;41.88;100930.84;5137963;27;46594;-76
2022/08/31 11:33:08;;;;;;;;;15.50;15.25;;;;;26.61;41.95;100923.28;5138418;27;45312;-75
2022/08/31 11:35:48;;;;;;;;;11.50;11.50;;;;;26.66;41.54;100931.75;5120101;27;45359;-76
2022/08/31 11:38:47;;;;;;;;;13.50;13.50;;;;;26.67;41.25;100914.56;5138642;27;45221;-79
2022/08/31 11:41:37;;;;;;;;;9.75;9.75;;;;;26.82;40.71;100922.91;5139257;27;45295;-78
2022/08/31 11:44:06;;;;;;;;;12.25;12.25;;;;;26.90;40.90;100914.03;5122962;27;45683;-79